Latest Weather Observations for Merriwa

IDN60801

Issued at 10:32 am EST Monday 1 May 2017 (issued every 30 minutes, with the page automatically refreshed every 10 minutes)

About weather observations | Map of weather stations | Latest weather observations for NSW | Other Formats
Station Details ID: 061287 Name: MERRIWA (ROSCOMMON) Lat: -32.19 Lon: 150.17 Height: 375.0 m
Data from the previous 72 hours. | See also: Recent months at Merriwa
Date/Time
EST
Temp
°C
App
Temp
°C
Dew
Point
°C
Rel
Hum
%
Delta-T
°C
Wind Press
QNH
hPa
Press
MSL
hPa
Rain since
9am
mm
Dir  Spd
km/h
Gust
km/h
Spd
kts
Gust
kts
01/10:30am 16.0 16.6 15.7 98 0.2 WNW 7 11 4 6 1020.7 1020.7 0.0
01/10:00am 14.0 13.9 13.8 99 0.1 W 7 11 4 6 1020.9 1020.9 0.0
01/09:30am 12.8 12.5 12.8 100 0.0 WNW 6 9 3 5 1021.2 1020.6 0.0
01/09:00am 12.3 12.3 12.3 100 0.0 WSW 4 9 2 5 1020.9 1020.3 0.0
01/08:30am 11.9 12.5 11.9 100 0.0 CALM 0 0 0 0 1021.1 1020.5 0.0
01/08:00am 11.8 12.4 11.8 100 0.0 CALM 0 0 0 0 1021.3 1020.7 0.0
01/07:30am 11.5 12.0 11.5 100 0.0 CALM 0 0 0 0 1021.2 1020.6 0.0
01/07:00am 11.2 11.5 11.0 99 0.1 CALM 0 0 0 0 1021.1 1020.5 0.0
01/06:30am 11.1 10.6 10.9 99 0.1 NE 4 7 2 4 1020.9 1020.3 0.0
01/06:00am 11.3 10.9 11.1 99 0.1 E 4 7 2 4 1020.8 1020.2 0.0
01/05:30am 11.6 11.3 11.4 99 0.1 E 4 7 2 4 1020.7 1020.1 0.0
01/05:00am 11.8 11.0 11.6 99 0.1 E 7 9 4 5 1020.6 1020.0 0.0
01/04:30am 11.9 11.7 11.7 99 0.1 ENE 4 7 2 4 1020.6 1020.0 0.0
01/04:00am 12.1 11.0 11.9 99 0.1 E 9 13 5 7 1020.5 1019.9 0.0
01/03:30am 11.1 11.4 10.9 99 0.1 CALM 0 0 0 0 1020.4 1019.8 0.0
01/03:00am 10.5 10.6 10.3 99 0.1 CALM 0 0 0 0 1020.4 1019.8 0.0
01/02:30am 10.0 10.0 9.9 99 0.1 CALM 0 0 0 0 1020.6 1020.0 0.0
01/02:00am 9.3 9.1 9.2 99 0.1 CALM 0 0 0 0 1020.8 1020.2 0.0
01/01:30am 8.3 7.8 8.0 98 0.1 CALM 0 0 0 0 1021.2 1020.6 0.0
01/01:00am 7.2 6.5 6.9 98 0.1 CALM 0 0 0 0 1021.4 1020.8 0.0
01/12:59am 7.1 6.4 6.8 98 0.1 CALM 0 0 0 0 1021.4 1020.8 0.0
01/12:30am 8.3 7.8 8.0 98 0.1 CALM 0 0 0 0 1021.2 1020.6 0.0
01/12:00am 8.7 8.3 8.4 98 0.1 CALM 0 0 0 0 1021.5 1020.9 0.0
 
Date/Time
EST
Temp
°C
App
Temp
°C
Dew
Point
°C
Rel
Hum
%
Delta-T
°C
Wind Press
QNH
hPa
Press
MSL
hPa
Rain since
9am
mm
Dir  Spd
km/h
Gust
km/h
Spd
kts
Gust
kts
30/11:30pm 8.1 7.6 7.8 98 0.1 CALM 0 0 0 0 1021.6 1021.0 0.0
30/11:00pm 8.4 8.0 8.1 98 0.1 CALM 0 0 0 0 1021.6 1021.0 0.0
30/10:30pm 8.6 8.1 8.0 96 0.3 CALM 0 0 0 0 1021.8 1021.2 0.0
30/10:00pm 9.7 9.5 9.1 96 0.3 CALM 0 0 0 0 1021.9 1021.3 0.0
30/09:30pm 10.1 9.6 9.2 94 0.5 E 2 7 1 4 1022.0 1021.4 0.0
30/09:00pm 9.6 9.1 8.0 90 0.8 CALM 0 0 0 0 1022.0 1021.4 0.0
30/08:30pm 10.6 10.3 8.7 88 1.0 CALM 0 0 0 0 1021.8 1021.2 0.0
30/08:00pm 10.9 10.7 9.0 88 1.0 CALM 0 0 0 0 1021.7 1021.1 0.0
30/07:30pm 11.0 9.5 8.4 84 1.3 E 6 7 3 4 1021.7 1021.1 0.0
30/07:00pm 11.4 10.6 8.1 80 1.6 E 2 7 1 4 1021.7 1021.1 0.0
30/06:30pm 12.9 11.7 9.4 79 1.8 ESE 6 7 3 4 1021.5 1020.9 0.0
30/06:00pm 13.4 11.5 9.1 75 2.2 ESE 9 9 5 5 1021.3 1020.7 0.0
30/05:30pm 14.3 12.4 8.9 70 2.8 ESE 9 13 5 7 1021.0 1020.4 0.0
30/05:00pm 17.0 15.1 10.4 65 3.6 ESE 11 17 6 9 1020.9 1020.3 0.0
30/04:30pm 18.4 15.9 11.0 62 4.1 E 15 20 8 11 1020.7 1020.1 0.0
30/04:00pm 19.3 17.2 11.3 60 4.4 E 13 17 7 9 1020.6 1020.0 0.0
30/03:30pm 19.5 16.9 12.0 62 4.2 ESE 17 22 9 12 1020.8 1020.2 0.0
30/03:00pm 20.4 17.7 12.9 62 4.3 ESE 19 28 10 15 1020.8 1020.2 0.0
30/02:30pm 20.2 17.4 12.7 62 4.3 E 19 28 10 15 1020.8 1020.2 0.0
30/02:00pm 19.6 17.2 12.6 64 4.0 E 17 26 9 14 1020.9 1020.3 0.0
30/01:30pm 18.9 16.5 12.6 67 3.6 ESE 17 22 9 12 1021.2 1020.6 0.0
30/01:00pm 19.4 17.1 14.0 71 3.2 ESE 19 26 10 14 1021.5 1020.9 0.0
30/12:30pm 19.9 17.6 14.0 69 3.5 E 19 24 10 13 1021.7 1021.1 0.0
30/12:00pm 19.0 16.4 13.8 72 3.0 E 20 33 11 18 1022.2 1021.6 0.0
30/11:30am 18.3 16.5 14.4 78 2.3 E 17 24 9 13 1022.8 1022.3 0.0
30/11:00am 16.5 14.3 13.4 82 1.8 E 17 22 9 12 1023.5 1022.9 0.0
30/10:30am 15.8 13.3 13.5 86 1.3 E 19 26 10 14 1023.6 1023.0 0.0
30/10:00am 14.6 14.0 13.6 94 0.6 E 9 15 5 8 1023.6 1023.0 0.0
30/09:30am 13.1 12.3 12.8 98 0.2 E 9 11 5 6 1023.7 1023.1 0.0
30/09:00am 12.3 12.2 12.0 98 0.2 SE 4 7 2 4 1023.9 1023.3 0.0
30/08:30am 9.8 9.4 9.7 99 0.1 W 2 7 1 4 1023.8 1023.2 0.0
30/08:00am 8.5 8.1 8.4 99 0.0 CALM 0 0 0 0 1023.7 1023.1 0.0
30/07:30am 6.8 6.0 6.7 99 0.0 CALM 0 0 0 0 1023.4 1022.8 0.0
30/07:00am 4.9 3.7 4.6 98 0.1 CALM 0 0 0 0 1023.3 1022.7 0.0
30/06:30am 4.0 2.6 3.7 98 0.1 CALM 0 0 0 0 1022.8 1022.3 0.0
30/06:00am 3.6 2.2 3.3 98 0.1 CALM 0 0 0 0 1022.6 1022.1 0.0
30/05:30am 3.8 2.4 3.5 98 0.1 CALM 0 2 0 1 1022.4 1021.8 0.0
30/05:00am 4.3 1.8 4.0 98 0.1 W 6 7 3 4 1022.3 1021.7 0.0
30/04:30am 4.1 1.4 3.8 98 0.1 W 7 9 4 5 1022.2 1021.6 0.0
30/04:00am 5.0 2.5 4.7 98 0.1 NNW 7 9 4 5 1022.0 1021.4 0.0
30/03:30am 4.4 3.1 4.1 98 0.1 CALM 0 0 0 0 1021.7 1021.1 0.0
30/03:00am 4.3 2.9 3.7 96 0.3 CALM 0 0 0 0 1021.8 1021.2 0.0
30/02:30am 5.1 3.9 4.5 96 0.3 CALM 0 4 0 2 1021.8 1021.2 0.0
30/02:00am 5.0 3.8 4.4 96 0.3 CALM 0 0 0 0 1021.9 1021.3 0.0
30/01:30am 6.2 4.0 5.3 94 0.4 NNE 6 7 3 4 1022.1 1021.5 0.0
30/01:00am 6.3 4.1 5.1 92 0.5 NNE 6 7 3 4 1022.0 1021.4 0.0
30/12:30am 7.1 5.4 5.9 92 0.6 NNE 4 9 2 5 1022.0 1021.4 0.0
30/12:00am 6.7 4.5 5.2 90 0.7 NE 6 9 3 5 1022.0 1021.4 0.0
 
Date/Time
EST
Temp
°C
App
Temp
°C
Dew
Point
°C
Rel
Hum
%
Delta-T
°C
Wind Press
QNH
hPa
Press
MSL
hPa
Rain since
9am
mm
Dir  Spd
km/h
Gust
km/h
Spd
kts
Gust
kts
29/11:30pm 7.6 5.5 5.9 89 0.8 NE 6 9 3 5 1022.0 1021.4 0.0
29/11:00pm 8.3 6.6 5.9 85 1.1 NNE 4 7 2 4 1022.0 1021.4 0.0
29/10:30pm 9.6 7.6 7.0 84 1.3 WNW 7 11 4 6 1021.8 1021.2 0.0
29/10:00pm 10.2 7.5 7.3 82 1.4 NW 11 15 6 8 1021.7 1021.1 0.0
29/09:30pm 9.9 7.1 7.0 82 1.4 WNW 11 13 6 7 1021.5 1020.9 0.0
29/09:00pm 10.2 7.3 6.7 79 1.7 WNW 11 13 6 7 1021.5 1020.9 0.0
29/08:30pm 10.4 7.1 6.2 75 2.0 WNW 13 15 7 8 1021.2 1020.6 0.0
29/08:00pm 11.3 8.4 6.4 72 2.3 NW 11 17 6 9 1021.1 1020.5 0.0
29/07:30pm 12.2 9.0 6.9 70 2.6 WNW 13 15 7 8 1020.9 1020.3 0.0
29/07:00pm 14.3 11.4 8.0 66 3.2 W 13 19 7 10 1020.8 1020.2 0.0
29/06:30pm 12.7 9.3 6.1 64 3.2 WNW 13 15 7 8 1020.5 1019.9 0.0
29/06:00pm 11.6 8.3 4.3 61 3.3 W 11 13 6 7 1020.2 1019.5 0.0
29/05:30pm 14.0 11.1 4.6 53 4.4 W 9 15 5 8 1019.6 1019.0 0.0
29/05:27pm 13.7 10.7 4.3 53 4.4 W 9 13 5 7 1019.6 1019.0 0.0
29/05:00pm 18.8 16.0 5.3 41 6.7 WSW 9 13 5 7 1019.5 1018.9 0.0
29/04:30pm 20.3 16.7 4.8 36 7.7 W 13 20 7 11 1019.3 1018.7 0.0
29/04:00pm 21.3 17.7 6.8 39 7.5 W 15 20 8 11 1019.0 1018.4 0.0
29/03:30pm 21.6 18.3 8.1 42 7.2 WNW 15 20 8 11 1019.0 1018.4 0.0
29/03:00pm 21.8 18.9 8.0 41 7.3 WNW 13 19 7 10 1019.0 1018.4 0.0
29/02:30pm 21.7 18.5 8.6 43 7.0 WNW 15 22 8 12 1019.2 1018.6 0.0
29/02:00pm 21.6 18.7 9.5 46 6.6 W 15 20 8 11 1019.2 1018.6 0.0
29/01:30pm 20.9 18.5 10.1 50 5.9 W 13 20 7 11 1019.4 1018.8 0.0
29/01:00pm 20.7 18.0 10.5 52 5.6 WNW 15 24 8 13 1019.8 1019.2 0.0
29/12:30pm 20.1 16.9 9.9 52 5.6 WNW 17 24 9 13 1020.5 1019.9 0.0
29/12:00pm 19.6 16.7 10.9 57 4.8 NW 17 24 9 13 1020.8 1020.2 0.0
29/11:30am 18.3 15.3 10.7 61 4.2 WNW 17 20 9 11 1021.5 1020.9 0.0
29/11:00am 17.4 14.9 11.0 66 3.5 NW 15 19 8 10 1021.8 1021.2 0.0
29/10:30am 16.4 13.9 10.9 70 3.0 W 15 20 8 11 1022.2 1021.6 0.0
29/10:00am 15.2 13.0 10.8 75 2.4 NW 13 17 7 9 1022.3 1021.7 0.0
29/09:30am 13.1 11.0 9.7 80 1.8 WNW 11 15 6 8 1022.5 1021.9 0.0
29/09:00am 11.1 8.7 8.8 86 1.2 WNW 11 15 6 8 1022.6 1022.1 0.0
29/08:30am 9.4 6.5 8.3 93 0.5 WNW 13 17 7 9 1022.6 1022.1 0.0
29/08:00am 8.0 5.4 7.7 98 0.1 WNW 11 17 6 9 1022.3 1021.7 0.0
29/07:30am 5.7 3.5 5.4 98 0.1 W 6 7 3 4 1021.9 1021.3 0.0
29/07:00am 3.4 0.2 3.1 98 0.1 WNW 9 11 5 6 1021.6 1021.0 0.0
29/06:30am 2.2 -0.6 1.9 98 0.1 W 6 7 3 4 1021.4 1020.8 0.0
29/06:00am 3.3 1.8 3.0 98 0.1 CALM 0 0 0 0 1021.1 1020.5 0.0
29/05:30am 2.9 1.3 2.6 98 0.1 CALM 0 0 0 0 1021.0 1020.4 0.0
29/05:00am 3.5 1.3 3.2 98 0.1 W 4 6 2 3 1021.1 1020.5 0.0
29/04:30am 2.9 0.1 2.3 96 0.2 W 6 7 3 4 1021.0 1020.4 0.0
29/04:00am 3.3 1.4 2.6 95 0.3 W 2 6 1 3 1021.0 1020.4 0.0
29/03:30am 3.7 0.8 2.8 94 0.4 W 7 9 4 5 1021.0 1020.4 0.0
29/03:00am 3.7 0.9 3.0 95 0.3 W 7 11 4 6 1021.0 1020.4 0.0
29/02:30am 4.6 1.9 3.6 93 0.4 W 7 9 4 5 1021.1 1020.5 0.0
29/02:00am 4.4 1.6 3.1 91 0.5 W 7 11 4 6 1021.3 1020.7 0.0
29/01:30am 5.3 2.8 4.0 91 0.6 NNW 6 7 3 4 1021.3 1020.7 0.0
29/01:00am 5.5 4.2 4.0 90 0.6 CALM 0 0 0 0 1021.5 1020.9 0.0
29/12:30am 5.3 2.8 3.5 88 0.8 WNW 6 9 3 5 1021.6 1021.0 0.0
29/12:00am 6.0 3.5 3.8 86 0.9 W 6 7 3 4 1021.7 1021.1 0.0
 
Date/Time
EST
Temp
°C
App
Temp
°C
Dew
Point
°C
Rel
Hum
%
Delta-T
°C
Wind Press
QNH
hPa
Press
MSL
hPa
Rain since
9am
mm
Dir  Spd
km/h
Gust
km/h
Spd
kts
Gust
kts
28/11:30pm 6.3 4.3 4.3 87 0.9 W 4 9 2 5 1021.7 1021.1 0.0
28/11:00pm 6.4 5.1 4.1 85 1.0 CALM 0 0 0 0 1021.8 1021.2 0.0
28/10:30pm 5.9 4.4 3.1 82 1.2 CALM 0 0 0 0 1022.0 1021.4 0.0
28/10:00pm 7.5 6.3 4.5 81 1.3 CALM 0 0 0 0 1022.0 1021.4 0.0
28/09:30pm 8.3 5.9 5.1 80 1.5 NW 7 7 4 4 1022.0 1021.4 0.0
28/09:00pm 7.6 6.4 4.4 80 1.4 CALM 0 0 0 0 1021.8 1021.2 0.0
28/08:30pm 8.5 6.0 4.9 78 1.6 NE 7 9 4 5 1021.7 1021.1 0.0
28/08:00pm 8.8 6.4 4.2 73 2.1 NNE 6 7 3 4 1021.8 1021.2 0.0
28/07:30pm 10.7 8.3 5.3 69 2.5 NNE 7 9 4 5 1021.8 1021.2 0.0
28/07:00pm 11.2 8.6 5.9 70 2.5 N 9 9 5 5 1021.7 1021.1 0.0
28/06:30pm 11.0 8.6 5.3 68 2.7 NNE 7 9 4 5 1021.5 1020.9 0.0
28/06:00pm 12.5 10.1 5.2 61 3.4 NE 7 9 4 5 1021.2 1020.6 0.0
28/05:30pm 15.1 13.1 6.1 55 4.4 NE 6 7 3 4 1020.9 1020.3 0.0
28/05:00pm 17.2 15.9 7.5 53 5.0 NE 4 7 2 4 1020.6 1020.0 0.0
28/04:30pm 18.3 16.6 7.4 49 5.6 NE 6 9 3 5 1020.4 1019.8 0.0
28/04:00pm 18.7 17.0 7.5 48 5.8 NNW 6 7 3 4 1020.6 1020.0 0.0
28/03:30pm 18.4 16.7 7.5 49 5.6 NNE 6 11 3 6 1020.8 1020.2 0.0
28/03:00pm 18.5 16.6 7.6 49 5.6 N 7 13 4 7 1021.0 1020.4 0.0
28/02:30pm 18.7 17.5 8.1 50 5.5 NNW 4 9 2 5 1021.2 1020.6 0.0
28/02:00pm 17.9 16.1 7.9 52 5.2 SW 7 11 4 6 1021.2 1020.6 0.0
28/01:30pm 18.2 16.7 9.0 55 4.9 NW 7 11 4 6 1021.3 1020.7 0.0
28/01:00pm 17.0 14.5 8.2 56 4.6 SSE 11 17 6 9 1021.7 1021.1 0.0
28/12:30pm 16.3 13.7 7.8 57 4.4 SSE 11 17 6 9 1022.1 1021.5 0.0
28/12:00pm 16.4 14.9 8.4 59 4.1 ESE 6 9 3 5 1022.6 1022.1 0.0
28/11:30am 15.7 14.0 7.7 59 4.1 NE 6 13 3 7 1023.1 1022.5 0.0
28/11:00am 14.8 11.8 7.8 63 3.5 SE 13 20 7 11 1023.3 1022.7 0.0

Other Formats:

Comma delimited format used in spreadsheet applications
http://www.bom.gov.au/fwo/IDN60801/IDN60801.95754.axf

JavaScript Object Notation format (JSON) in row-major order
http://www.bom.gov.au/fwo/IDN60801/IDN60801.95754.json